Time;durP1;ratioP1;P1;durP2;ratioP2;P2;SDS_P1;SDS_P2;PMS_P1;PMS_P2;Temp;Humidity;BMP_temperature;BMP_pressure;BME280_temperature;BME280_humidity;BME280_pressure;Samples;Min_cycle;Max_cycle;Signal;HPM_P1;HPM_P2
2021/11/01 00:01:38;;;;;;;4.53;1.52;;;12.90;99.90;;;;;;5074229;28;20175;-77
2021/11/01 00:04:04;;;;;;;4.55;1.60;;;12.90;99.90;;;;;;5078268;28;20155;-77
2021/11/01 00:06:30;;;;;;;4.60;1.37;;;12.90;99.90;;;;;;5074012;28;20168;-77
2021/11/01 00:08:57;;;;;;;3.92;0.90;;;12.80;99.90;;;;;;5091434;28;20578;-76
2021/11/01 00:11:23;;;;;;;8.17;1.70;;;12.80;99.90;;;;;;5073792;28;20225;-80
2021/11/01 00:13:49;;;;;;;3.97;0.90;;;12.80;99.90;;;;;;5091524;28;20649;-80
2021/11/01 00:16:16;;;;;;;5.88;1.30;;;12.80;99.90;;;;;;5091602;28;20566;-80
2021/11/01 00:18:42;;;;;;;5.97;1.10;;;12.80;99.90;;;;;;5091518;28;20731;-80
2021/11/01 00:21:08;;;;;;;5.43;1.40;;;12.70;99.90;;;;;;5091967;28;20160;-80
2021/11/01 00:23:34;;;;;;;7.80;1.20;;;12.70;99.90;;;;;;5091503;28;20918;-80
2021/11/01 00:26:00;;;;;;;5.00;1.13;;;12.70;99.90;;;;;;5091272;28;20564;-79
2021/11/01 00:28:27;;;;;;;7.30;1.27;;;12.60;99.90;;;;;;5091725;28;20264;-80
2021/11/01 00:30:56;;;;;;;2.72;1.10;;;12.60;99.90;;;;;;5091396;28;20167;-80
2021/11/01 00:33:23;;;;;;;8.73;1.35;;;12.60;99.90;;;;;;5091573;28;20584;-80
2021/11/01 00:35:49;;;;;;;6.07;1.20;;;12.50;99.90;;;;;;5091262;28;20160;-80
2021/11/01 00:38:16;;;;;;;4.28;1.10;;;12.50;99.90;;;;;;5073554;28;20199;-80
2021/11/01 00:40:42;;;;;;;4.63;1.35;;;12.50;99.90;;;;;;5077106;28;20159;-80
2021/11/01 00:43:08;;;;;;;4.10;1.50;;;12.40;99.90;;;;;;5074800;28;20508;-80
2021/11/01 00:45:35;;;;;;;5.30;1.10;;;12.40;99.90;;;;;;5073131;28;20653;-81
2021/11/01 00:48:02;;;;;;;5.22;1.00;;;12.40;99.90;;;;;;5091628;28;20191;-80
2021/11/01 00:50:28;;;;;;;5.93;1.52;;;12.40;99.90;;;;;;5091483;28;20215;-80
2021/11/01 00:52:55;;;;;;;7.63;1.08;;;12.40;99.90;;;;;;5091202;28;20259;-80
2021/11/01 00:55:25;;;;;;;6.68;2.05;;;12.30;99.90;;;;;;5091240;28;20168;-80
2021/11/01 00:57:51;;;;;;;6.55;1.60;;;12.30;99.90;;;;;;5073249;28;20211;-79
2021/11/01 01:00:18;;;;;;;6.60;1.30;;;12.30;99.90;;;;;;5091451;28;20191;-79
2021/11/01 01:02:45;;;;;;;4.53;0.98;;;12.20;99.90;;;;;;5056476;28;20172;-80
2021/11/01 01:05:11;;;;;;;6.13;1.00;;;12.20;99.90;;;;;;5091231;28;20183;-80
2021/11/01 01:07:37;;;;;;;8.27;1.10;;;12.20;99.90;;;;;;5091134;28;20187;-79
2021/11/01 01:10:04;;;;;;;4.97;1.77;;;12.20;99.90;;;;;;5095324;28;20642;-80
2021/11/01 01:12:30;;;;;;;4.15;1.08;;;12.30;99.90;;;;;;5095067;28;20631;-79
2021/11/01 01:14:59;;;;;;;6.07;1.13;;;12.20;99.90;;;;;;5077055;28;20222;-79
2021/11/01 01:17:26;;;;;;;5.63;1.17;;;12.30;99.90;;;;;;5095552;28;20633;-79
2021/11/01 01:20:04;;;;;;;3.72;1.00;;;12.30;99.90;;;;;;5099128;28;20175;-79
2021/11/01 01:22:30;;;;;;;9.48;2.13;;;12.20;99.90;;;;;;5076959;28;20183;-80
2021/11/01 01:25:10;;;;;;;5.63;1.30;;;12.30;99.90;;;;;;5076357;28;20164;-79
2021/11/01 01:27:38;;;;;;;6.65;1.70;;;12.30;99.90;;;;;;5076210;28;20620;-80
2021/11/01 01:30:05;;;;;;;7.53;1.83;;;12.30;99.90;;;;;;5094802;28;20176;-79
2021/11/01 01:32:31;;;;;;;4.53;1.30;;;12.30;99.90;;;;;;5094609;28;20159;-79
2021/11/01 01:34:56;;;;;;;7.40;2.07;;;12.30;99.90;;;;;;5059596;28;20175;-79
2021/11/01 01:37:22;;;;;;;3.00;0.90;;;12.30;99.90;;;;;;5094585;28;20188;-79
2021/11/01 01:39:50;;;;;;;4.30;1.10;;;12.20;99.90;;;;;;5094452;28;20167;-79
2021/11/01 01:42:16;;;;;;;9.55;1.70;;;12.20;99.90;;;;;;5094726;28;20166;-79
2021/11/01 01:44:42;;;;;;;4.90;1.30;;;12.20;99.90;;;;;;5076082;28;20180;-80
2021/11/01 01:47:10;;;;;;;4.93;1.02;;;12.20;99.90;;;;;;5094181;28;20203;-79
2021/11/01 01:49:36;;;;;;;3.38;0.90;;;12.20;99.90;;;;;;5102740;28;20174;-80
2021/11/01 01:52:03;;;;;;;4.47;1.10;;;12.20;99.90;;;;;;5105835;28;20171;-79
2021/11/01 01:54:29;;;;;;;4.30;1.15;;;12.20;99.90;;;;;;5113681;28;20171;-79
2021/11/01 01:56:55;;;;;;;7.43;2.13;;;12.20;99.90;;;;;;5059524;28;20210;-79
2021/11/01 01:59:21;;;;;;;4.40;1.03;;;12.20;99.90;;;;;;5062256;28;20163;-80
2021/11/01 02:01:48;;;;;;;4.40;1.30;;;12.20;99.90;;;;;;5084873;28;20263;-80
2021/11/01 02:04:23;;;;;;;3.28;1.00;;;12.20;99.90;;;;;;5091236;28;20270;-80
2021/11/01 02:06:52;;;;;;;6.20;1.25;;;12.20;99.90;;;;;;5055602;28;20170;-79
2021/11/01 02:09:21;;;;;;;4.55;1.40;;;12.20;99.90;;;;;;5085586;28;20167;-79
2021/11/01 02:11:58;;;;;;;5.65;1.10;;;12.20;99.90;;;;;;5094511;28;20520;-79
2021/11/01 02:14:31;;;;;;;3.28;1.20;;;12.20;99.90;;;;;;5096183;28;20173;-79
2021/11/01 02:17:00;;;;;;;3.90;0.85;;;12.20;99.90;;;;;;5113652;28;20187;-79
2021/11/01 02:19:29;;;;;;;5.18;2.03;;;12.20;99.90;;;;;;5113762;28;20216;-79
2021/11/01 02:22:09;;;;;;;4.32;1.00;;;12.20;99.90;;;;;;5095738;28;20167;-79
2021/11/01 02:25:04;;;;;;;4.00;1.08;;;12.20;99.90;;;;;;5114069;28;20194;-80
2021/11/01 02:27:33;;;;;;;6.38;1.20;;;12.20;99.90;;;;;;5091988;28;20202;-80
2021/11/01 02:29:59;;;;;;;2.63;0.95;;;12.20;99.90;;;;;;5114285;28;20171;-80
2021/11/01 02:32:26;;;;;;;8.05;1.65;;;12.20;99.90;;;;;;5117317;28;20167;-81
2021/11/01 02:34:53;;;;;;;5.15;1.27;;;12.20;99.90;;;;;;5114063;28;20196;-80
2021/11/01 02:37:40;;;;;;;5.70;1.25;;;12.20;99.90;;;;;;5093989;28;20209;-80
2021/11/01 02:40:07;;;;;;;10.27;1.15;;;12.10;99.90;;;;;;5114148;28;20224;-80
2021/11/01 02:42:34;;;;;;;4.85;1.10;;;12.10;99.90;;;;;;5113515;28;20597;-80
2021/11/01 02:45:06;;;;;;;4.25;1.00;;;12.10;99.90;;;;;;5095421;28;20167;-80
2021/11/01 02:47:32;;;;;;;4.43;1.00;;;12.10;99.90;;;;;;5095127;28;20190;-80
2021/11/01 02:50:00;;;;;;;3.83;0.80;;;12.10;99.90;;;;;;5113164;28;20186;-81
2021/11/01 02:52:28;;;;;;;5.07;1.25;;;12.10;99.90;;;;;;5095668;28;20533;-81
2021/11/01 02:54:54;;;;;;;2.60;0.90;;;12.10;99.90;;;;;;5113290;28;20167;-80
2021/11/01 02:57:21;;;;;;;2.58;0.85;;;12.20;99.90;;;;;;5113033;28;20221;-79
2021/11/01 02:59:47;;;;;;;4.68;1.63;;;12.20;99.90;;;;;;5113287;28;20156;-79
2021/11/01 03:02:13;;;;;;;4.68;1.02;;;12.20;99.90;;;;;;5113545;28;20178;-79
2021/11/01 03:04:39;;;;;;;6.00;0.80;;;12.20;99.90;;;;;;5094748;28;20159;-79
2021/11/01 03:07:05;;;;;;;4.67;1.13;;;12.20;99.90;;;;;;5113524;28;20683;-80
2021/11/01 03:09:34;;;;;;;3.05;0.85;;;12.20;99.90;;;;;;5116479;28;20560;-79
2021/11/01 03:12:03;;;;;;;4.45;1.15;;;12.20;99.90;;;;;;5095332;28;20541;-79
2021/11/01 03:14:33;;;;;;;2.50;0.82;;;12.20;99.90;;;;;;5113082;28;20163;-80
2021/11/01 03:17:01;;;;;;;5.70;0.90;;;12.10;99.90;;;;;;5112730;28;20191;-80
2021/11/01 03:19:29;;;;;;;5.18;0.90;;;12.10;99.90;;;;;;5113069;28;20612;-80
2021/11/01 03:22:01;;;;;;;3.15;0.80;;;12.10;99.90;;;;;;5112903;28;20199;-80
2021/11/01 03:24:30;;;;;;;4.75;0.90;;;12.10;99.90;;;;;;5094660;28;20250;-80
2021/11/01 03:26:58;;;;;;;3.08;0.90;;;12.10;99.90;;;;;;5112326;28;20194;-79
2021/11/01 03:29:25;;;;;;;8.25;1.30;;;12.10;99.90;;;;;;5112959;28;20159;-79
2021/11/01 03:31:51;;;;;;;4.18;0.80;;;12.00;99.90;;;;;;5111820;28;20174;-80
2021/11/01 03:34:19;;;;;;;6.50;1.57;;;12.00;99.90;;;;;;5094436;28;20167;-79
2021/11/01 03:36:46;;;;;;;3.63;0.88;;;12.00;99.90;;;;;;5112344;28;20982;-79
2021/11/01 03:39:14;;;;;;;3.83;0.90;;;11.90;99.90;;;;;;5112971;28;20179;-79
2021/11/01 03:41:41;;;;;;;4.03;0.70;;;11.90;99.90;;;;;;5112895;28;20178;-80
2021/11/01 03:44:10;;;;;;;2.72;0.95;;;11.90;99.90;;;;;;5113048;28;20168;-80
2021/11/01 03:46:41;;;;;;;3.38;1.02;;;11.80;99.90;;;;;;5096743;28;20621;-80
2021/11/01 03:49:09;;;;;;;3.30;1.05;;;11.80;99.90;;;;;;5112720;28;20255;-80
2021/11/01 03:51:40;;;;;;;4.85;0.80;;;11.80;99.90;;;;;;5112470;28;20193;-80
2021/11/01 03:54:07;;;;;;;6.43;1.10;;;11.70;99.90;;;;;;5112305;28;20163;-79
2021/11/01 03:56:37;;;;;;;3.65;1.10;;;11.70;99.90;;;;;;5112323;28;20163;-80
2021/11/01 03:59:03;;;;;;;2.97;0.82;;;11.70;99.90;;;;;;5112369;28;20244;-79
2021/11/01 04:01:29;;;;;;;2.03;0.80;;;11.70;99.90;;;;;;5094332;28;20652;-79
2021/11/01 04:03:55;;;;;;;3.50;0.80;;;11.70;99.90;;;;;;5111998;28;20163;-79
2021/11/01 04:06:22;;;;;;;3.90;0.87;;;11.70;99.90;;;;;;5112139;28;21187;-79
2021/11/01 04:08:49;;;;;;;4.28;1.33;;;11.60;99.90;;;;;;5112076;28;20277;-80
2021/11/01 04:11:17;;;;;;;4.40;0.73;;;11.60;99.90;;;;;;5094095;28;20265;-79
2021/11/01 04:13:43;;;;;;;3.05;0.70;;;11.60;99.90;;;;;;5111973;28;20167;-80
2021/11/01 04:16:14;;;;;;;3.22;1.08;;;11.60;99.90;;;;;;5093722;28;20163;-79
2021/11/01 04:18:54;;;;;;;3.33;0.73;;;11.60;99.90;;;;;;5093758;28;20255;-80
2021/11/01 04:21:20;;;;;;;3.67;1.25;;;11.60;99.90;;;;;;5112953;28;20223;-80
2021/11/01 04:23:46;;;;;;;2.30;0.80;;;11.60;99.90;;;;;;5096882;28;20414;-80
2021/11/01 04:26:16;;;;;;;3.75;0.80;;;11.60;99.90;;;;;;5111657;28;20212;-79
2021/11/01 04:28:42;;;;;;;5.20;1.10;;;11.60;99.90;;;;;;5112102;28;20183;-80
2021/11/01 04:31:10;;;;;;;3.63;1.25;;;11.60;99.90;;;;;;5111992;28;20525;-79
2021/11/01 04:33:38;;;;;;;2.47;0.70;;;11.60;99.90;;;;;;5093675;28;20167;-79
2021/11/01 04:36:04;;;;;;;3.00;0.70;;;11.50;99.90;;;;;;5111445;28;20182;-79
2021/11/01 04:38:56;;;;;;;2.63;0.93;;;11.60;99.90;;;;;;5112054;28;20199;-80
2021/11/01 04:41:32;;;;;;;3.35;1.08;;;11.60;99.90;;;;;;5076839;28;20569;-79
2021/11/01 04:44:18;;;;;;;6.13;0.73;;;11.50;99.90;;;;;;5115740;28;20200;-79
2021/11/01 04:54:57;;;;;;;6.43;0.80;;;11.50;99.90;;;;;;5097723;28;20167;-79
2021/11/01 04:57:24;;;;;;;1.87;0.90;;;11.50;99.90;;;;;;5115357;28;20195;-79
2021/11/01 04:59:50;;;;;;;3.38;0.75;;;11.40;99.90;;;;;;5117614;28;20224;-79
2021/11/01 05:02:18;;;;;;;2.50;0.73;;;11.40;99.90;;;;;;5117087;28;20167;-79
2021/11/01 05:04:45;;;;;;;4.28;0.90;;;11.40;99.90;;;;;;5115891;28;20167;-80
2021/11/01 05:07:11;;;;;;;3.22;0.82;;;11.40;99.90;;;;;;5115060;28;20281;-80
2021/11/01 05:15:08;;;;;;;5.57;0.90;;;11.40;99.90;;;;;;5115587;28;20167;-79
2021/11/01 05:25:23;;;;;;;4.90;0.90;;;11.40;99.90;;;;;;5115539;28;20242;-79
2021/11/01 05:30:19;;;;;;;4.87;0.90;;;11.30;99.90;;;;;;5115491;28;20185;-78
2021/11/01 05:35:30;;;;;;;2.53;1.15;;;11.30;99.90;;;;;;5115704;28;20170;-80
2021/11/01 05:37:55;;;;;;;3.30;0.90;;;11.20;99.90;;;;;;5099625;28;20294;-81
2021/11/01 05:40:21;;;;;;;5.50;0.80;;;11.20;99.90;;;;;;5096715;28;20565;-80
2021/11/01 05:42:47;;;;;;;4.83;0.90;;;11.20;99.90;;;;;;5096664;28;20571;-80
2021/11/01 05:45:14;;;;;;;3.15;0.90;;;11.20;99.90;;;;;;5096346;28;20565;-80
2021/11/01 05:47:43;;;;;;;2.13;0.95;;;11.20;99.90;;;;;;5114718;28;20186;-80
2021/11/01 05:50:09;;;;;;;5.80;0.80;;;11.10;99.90;;;;;;5115042;28;20171;-81
2021/11/01 05:52:35;;;;;;;4.30;1.00;;;11.10;99.90;;;;;;5099575;28;20167;-81
2021/11/01 05:55:12;;;;;;;3.63;0.90;;;11.10;99.90;;;;;;5093509;28;20167;-81
2021/11/01 06:03:28;;;;;;;3.50;1.08;;;11.20;99.90;;;;;;5083020;28;20274;-81
2021/11/01 06:08:43;;;;;;;3.08;1.00;;;11.20;99.90;;;;;;5094074;28;20187;-81
2021/11/01 06:13:55;;;;;;;4.55;1.10;;;11.10;99.90;;;;;;5096356;28;20179;-81
2021/11/01 06:16:21;;;;;;;2.33;0.70;;;11.10;99.90;;;;;;5095721;28;20278;-81
2021/11/01 06:18:48;;;;;;;3.00;0.90;;;11.10;99.90;;;;;;5093497;28;20195;-81
2021/11/01 06:21:16;;;;;;;5.50;1.00;;;11.10;99.90;;;;;;5092597;28;20163;-81
2021/11/01 06:23:45;;;;;;;2.90;0.73;;;11.10;99.90;;;;;;5075728;28;20224;-81
2021/11/01 06:26:13;;;;;;;3.67;0.80;;;11.10;99.90;;;;;;5093511;28;20167;-81
2021/11/01 06:28:43;;;;;;;2.85;0.93;;;11.20;99.90;;;;;;5075680;28;20195;-81
2021/11/01 06:31:29;;;;;;;4.10;1.00;;;11.20;99.90;;;;;;5093847;28;20247;-81
2021/11/01 06:34:15;;;;;;;2.60;0.70;;;11.20;99.90;;;;;;5093942;28;20173;-80
2021/11/01 06:42:21;;;;;;;3.97;0.77;;;11.20;99.90;;;;;;5093569;28;20165;-80
2021/11/01 06:55:14;;;;;;;5.28;0.90;;;11.30;99.90;;;;;;5073248;28;20175;-79
2021/11/01 08:21:47;;;;;;;6.00;0.90;;;13.10;99.90;;;;;;5045498;28;20183;-75
2021/11/01 08:30:04;;;;;;;1.77;0.80;;;13.40;99.90;;;;;;5051419;28;20223;-75
2021/11/01 08:51:38;;;;;;;3.20;1.20;;;14.70;99.90;;;;;;5071089;28;20664;-75
2021/11/01 09:05:53;;;;;;;2.00;0.80;;;19.30;99.90;;;;;;5042256;28;20601;-75
2021/11/01 09:08:20;;;;;;;2.07;0.70;;;20.30;99.90;;;;;;5049336;28;20594;-75
2021/11/01 09:13:51;;;;;;;2.80;0.90;;;21.90;99.90;;;;;;5064361;28;21049;-75
2021/11/01 09:26:50;;;;;;;3.00;0.90;;;23.00;99.90;;;;;;5057777;28;20579;-75
2021/11/01 09:42:54;;;;;;;1.73;0.60;;;24.40;99.90;;;;;;5075000;28;20558;-73
2021/11/01 09:45:22;;;;;;;1.80;0.83;;;24.20;99.90;;;;;;5056119;28;20613;-74
2021/11/01 09:47:49;;;;;;;2.80;0.70;;;24.00;99.90;;;;;;5056301;28;20574;-74
2021/11/01 09:50:17;;;;;;;4.23;0.93;;;23.80;99.90;;;;;;5056306;28;21335;-74
2021/11/01 09:52:55;;;;;;;2.27;0.67;;;23.80;99.90;;;;;;5056001;28;20574;-75
2021/11/01 09:55:46;;;;;;;1.77;0.63;;;24.10;99.90;;;;;;5073552;28;20577;-74
2021/11/01 10:01:01;;;;;;;1.47;0.60;;;24.30;99.90;;;;;;5055578;28;20554;-74
2021/11/01 10:03:48;;;;;;;2.10;0.70;;;24.00;99.90;;;;;;5073564;28;20570;-76
2021/11/01 10:06:24;;;;;;;2.57;0.70;;;23.60;99.90;;;;;;5056608;28;20594;-74
2021/11/01 10:08:52;;;;;;;2.77;0.70;;;23.10;99.90;;;;;;5073486;28;20616;-74
2021/11/01 10:11:30;;;;;;;3.43;0.70;;;22.70;99.90;;;;;;5055397;28;20689;-74
2021/11/01 10:13:58;;;;;;;2.23;0.60;;;22.30;99.90;;;;;;5072782;28;21098;-74
2021/11/01 10:19:55;;;;;;;2.70;0.70;;;21.40;99.90;;;;;;4994466;28;20975;-74
2021/11/01 10:22:24;;;;;;;2.27;0.60;;;21.10;99.90;;;;;;5011129;28;20582;-74
2021/11/01 10:24:55;;;;;;;2.23;0.50;;;21.00;99.90;;;;;;5040644;28;20187;-73
2021/11/01 10:27:56;;;;;;;2.60;0.70;;;20.90;99.90;;;;;;5072809;28;20571;-74
2021/11/01 10:30:35;;;;;;;4.63;0.50;;;20.70;99.90;;;;;;5055369;28;20579;-73
2021/11/01 10:33:05;;;;;;;2.30;0.57;;;20.50;99.90;;;;;;5072858;28;20566;-72
2021/11/01 10:35:32;;;;;;;1.60;0.60;;;20.20;99.90;;;;;;5076429;28;20637;-75
2021/11/01 10:38:26;;;;;;;3.97;0.60;;;20.00;99.90;;;;;;5042210;28;20634;-74
2021/11/01 10:41:09;;;;;;;1.93;0.60;;;19.90;99.90;;;;;;5070922;28;20606;-75
2021/11/01 11:11:49;;;;;;;2.33;0.50;;;18.40;99.90;;;;;;5057686;28;20685;-74
2021/11/01 11:49:16;;;;;;;2.53;0.60;;;17.50;99.90;;;;;;5071483;28;21253;-75
2021/11/01 11:52:05;;;;;;;1.40;0.50;;;17.40;99.90;;;;;;5052493;28;20177;-75
2021/11/01 11:54:45;;;;;;;5.13;0.80;;;17.50;99.90;;;;;;5072075;28;20605;-75
2021/11/01 11:57:28;;;;;;;2.20;0.60;;;17.50;99.90;;;;;;5077002;28;20578;-75
2021/11/01 11:59:55;;;;;;;1.50;0.60;;;17.50;99.90;;;;;;5057663;28;20610;-76
2021/11/01 12:02:38;;;;;;;2.53;0.70;;;17.60;99.90;;;;;;5056725;28;20952;-75
2021/11/01 12:05:11;;;;;;;3.17;0.60;;;17.40;99.90;;;;;;5072858;28;20718;-75
2021/11/01 12:08:04;;;;;;;2.10;0.60;;;17.40;99.90;;;;;;5037200;28;20757;-75
2021/11/01 12:13:53;;;;;;;1.83;0.50;;;17.50;99.90;;;;;;5072764;28;20655;-75
2021/11/01 12:19:03;;;;;;;1.73;0.50;;;17.50;99.90;;;;;;5072358;28;20673;-74
2021/11/01 12:21:31;;;;;;;3.70;0.80;;;17.40;99.90;;;;;;5073536;28;20570;-76
2021/11/01 12:23:57;;;;;;;2.63;0.63;;;17.50;99.90;;;;;;5060436;28;20578;-74
2021/11/01 12:26:25;;;;;;;3.30;0.80;;;17.40;99.90;;;;;;5053349;28;20577;-74
2021/11/01 12:28:52;;;;;;;2.13;0.50;;;17.50;99.90;;;;;;5053434;28;20606;-74
2021/11/01 12:31:18;;;;;;;1.83;0.70;;;17.50;99.90;;;;;;5072269;28;20570;-75
2021/11/01 12:33:49;;;;;;;2.37;0.70;;;17.50;99.90;;;;;;5074319;28;20962;-76
2021/11/01 12:36:15;;;;;;;2.80;0.50;;;17.50;99.90;;;;;;5072840;28;20943;-76
2021/11/01 12:38:53;;;;;;;5.27;0.70;;;17.50;99.90;;;;;;5077126;28;20725;-75
2021/11/01 12:41:38;;;;;;;2.30;0.60;;;17.50;99.90;;;;;;5060652;28;20591;-76
2021/11/01 12:57:43;;;;;;;2.03;0.60;;;17.30;99.90;;;;;;5051386;28;21023;-77
2021/11/01 13:00:11;;;;;;;3.30;0.70;;;17.30;99.90;;;;;;5089229;22;21098;-77
2021/11/01 13:02:47;;;;;;;7.90;1.27;;;17.30;99.90;;;;;;5053968;28;20624;-79
2021/11/01 13:05:18;;;;;;;1.87;0.50;;;17.20;99.90;;;;;;5076164;28;20569;-78
2021/11/01 13:07:54;;;;;;;2.60;0.73;;;17.20;99.90;;;;;;5056503;28;20959;-78
2021/11/01 13:13:24;;;;;;;1.50;0.60;;;17.00;98.70;;;;;;5074424;28;20641;-83
2021/11/01 13:18:36;;;;;;;3.03;0.67;;;17.00;99.90;;;;;;5074916;28;20614;-80
2021/11/01 13:21:17;;;;;;;1.20;0.60;;;17.10;99.90;;;;;;5057491;28;20634;-82
2021/11/01 13:23:54;;;;;;;2.00;0.77;;;17.10;99.90;;;;;;5095327;28;20562;-82
2021/11/01 13:26:49;;;;;;;2.83;0.70;;;17.10;99.90;;;;;;5091906;28;20577;-80
2021/11/01 13:37:40;;;;;;;5.30;0.60;;;17.10;99.90;;;;;;5074158;28;20613;-81
2021/11/01 13:40:16;;;;;;;1.80;0.60;;;17.10;99.90;;;;;;5074122;28;20973;-82
2021/11/01 13:43:05;;;;;;;1.00;0.40;;;17.00;99.90;;;;;;5073941;28;20555;-84
2021/11/01 13:45:31;;;;;;;3.27;0.67;;;17.00;99.90;;;;;;5072858;28;20601;-80
2021/11/01 13:47:59;;;;;;;1.77;0.50;;;17.00;99.90;;;;;;5073601;28;20563;-82
2021/11/01 13:50:38;;;;;;;2.27;0.60;;;17.00;99.90;;;;;;5073573;28;20602;-82
2021/11/01 13:53:18;;;;;;;2.60;0.60;;;17.00;99.90;;;;;;5055661;28;20740;-83
2021/11/01 13:55:49;;;;;;;1.80;0.50;;;17.00;99.90;;;;;;5073712;28;20578;-83
2021/11/01 14:03:27;;;;;;;2.03;1.00;;;16.90;99.90;;;;;;5077687;28;20571;-83
2021/11/01 14:16:24;;;;;;;5.57;1.00;;;16.80;99.90;;;;;;5054669;28;21261;-80
2021/11/01 16:16:39;;;;;;;2.47;0.90;;;15.00;99.90;;;;;;5064188;28;20644;-81
2021/11/01 16:19:06;;;;;;;2.43;0.70;;;14.90;99.90;;;;;;5052925;28;20646;-81
2021/11/01 16:21:32;;;;;;;3.97;1.20;;;14.80;99.90;;;;;;5043833;28;20571;-81
2021/11/01 16:23:59;;;;;;;2.40;1.00;;;14.80;99.90;;;;;;5055843;28;20558;-81
2021/11/01 16:26:35;;;;;;;3.67;0.80;;;14.70;99.90;;;;;;5053276;28;20916;-81
2021/11/01 16:29:10;;;;;;;4.43;0.97;;;14.60;99.90;;;;;;5055188;28;20577;-83
2021/11/01 16:39:18;;;;;;;2.30;1.00;;;14.40;99.90;;;;;;5072543;28;20669;-80
2021/11/01 16:41:46;;;;;;;2.40;0.83;;;14.40;99.90;;;;;;5053471;28;20586;-80
2021/11/01 16:44:30;;;;;;;3.00;1.00;;;14.30;99.90;;;;;;5055342;28;20576;-82
2021/11/01 16:46:56;;;;;;;2.13;0.90;;;14.30;99.90;;;;;;5054900;28;20173;-82
2021/11/01 16:49:23;;;;;;;2.00;0.90;;;14.20;99.90;;;;;;5055320;28;20949;-82
2021/11/01 16:51:51;;;;;;;1.93;0.90;;;14.20;99.90;;;;;;5055096;28;20567;-81
2021/11/01 16:54:20;;;;;;;3.10;1.10;;;14.10;99.90;;;;;;5055173;28;20910;-81
2021/11/01 17:04:40;;;;;;;5.43;1.57;;;14.00;99.90;;;;;;5097259;28;22118;-83
2021/11/01 17:10:22;;;;;;;3.20;1.00;;;13.90;99.90;;;;;;5073798;28;20617;-83
2021/11/01 17:37:30;;;;;;;2.80;1.00;;;13.50;99.90;;;;;;5096025;28;20573;-81
2021/11/01 18:38:52;;;;;;;2.90;1.30;;;13.00;99.90;;;;;;5074140;28;20225;-81
2021/11/01 18:41:57;;;;;;;3.00;1.20;;;13.00;99.90;;;;;;5055896;28;20180;-80
2021/11/01 18:52:13;;;;;;;5.03;0.90;;;12.90;99.90;;;;;;5075204;28;20173;-82
2021/11/01 18:54:44;;;;;;;5.18;0.93;;;12.80;99.90;;;;;;5055940;28;20208;-82
2021/11/01 18:57:12;;;;;;;2.10;1.13;;;12.80;99.90;;;;;;5076244;28;20191;-81
2021/11/01 18:59:40;;;;;;;4.05;1.30;;;12.80;99.90;;;;;;5054588;28;20212;-81
2021/11/01 19:04:54;;;;;;;4.85;1.20;;;12.70;99.90;;;;;;5071543;28;20172;-82
2021/11/01 19:07:38;;;;;;;3.85;0.98;;;12.70;99.90;;;;;;5071508;28;20655;-81
2021/11/01 19:10:15;;;;;;;3.75;1.20;;;12.60;99.90;;;;;;5072688;28;20208;-80
2021/11/01 19:16:15;;;;;;;2.97;1.00;;;12.60;99.90;;;;;;5059818;28;20168;-79
2021/11/01 20:08:23;;;;;;;6.45;1.25;;;12.20;99.90;;;;;;5073413;28;20176;-80
2021/11/01 21:26:19;;;;;;;4.03;0.93;;;12.10;99.90;;;;;;5077344;28;20546;-80
2021/11/01 21:28:46;;;;;;;5.45;1.10;;;12.10;99.90;;;;;;5063868;28;20176;-79
2021/11/01 21:31:11;;;;;;;4.28;1.08;;;12.00;99.90;;;;;;5055680;28;20227;-79
2021/11/01 21:33:37;;;;;;;4.63;1.00;;;12.00;99.90;;;;;;5039420;28;20177;-80
2021/11/01 21:36:10;;;;;;;2.50;1.00;;;12.00;99.90;;;;;;5039032;28;20239;-80
2021/11/01 21:38:36;;;;;;;4.20;1.23;;;12.00;99.90;;;;;;5058288;28;20197;-80
2021/11/01 21:41:03;;;;;;;12.90;1.77;;;12.00;99.90;;;;;;5056616;28;20192;-81
2021/11/01 21:43:29;;;;;;;3.42;1.52;;;11.90;99.90;;;;;;5054408;28;20526;-81
2021/11/01 21:45:55;;;;;;;2.90;1.05;;;11.90;99.90;;;;;;5036511;28;20176;-80
2021/11/01 21:48:23;;;;;;;4.07;1.13;;;11.90;99.90;;;;;;5019914;28;20542;-80
2021/11/01 21:50:50;;;;;;;3.10;1.52;;;11.90;99.90;;;;;;5036624;28;20595;-81
2021/11/01 21:53:21;;;;;;;5.13;1.15;;;11.90;99.90;;;;;;5036513;28;20566;-81
2021/11/01 21:55:48;;;;;;;3.47;1.20;;;11.90;99.90;;;;;;5036219;28;20204;-81
2021/11/01 22:01:01;;;;;;;3.33;0.90;;;12.00;99.90;;;;;;5051750;28;20208;-81
2021/11/01 22:20:07;;;;;;;4.95;1.52;;;12.20;99.90;;;;;;5056172;28;20618;-80
2021/11/01 22:22:52;;;;;;;5.13;1.95;;;12.30;99.90;;;;;;5074785;28;20195;-82
2021/11/01 22:33:52;;;;;;;3.03;1.00;;;12.10;99.90;;;;;;5075643;28;20165;-79
2021/11/01 22:39:17;;;;;;;3.47;1.10;;;12.10;99.90;;;;;;5018312;28;20235;-80
2021/11/01 22:41:58;;;;;;;3.28;0.80;;;12.10;99.90;;;;;;5074107;28;20186;-80
2021/11/01 22:58:01;;;;;;;3.35;0.90;;;11.90;99.90;;;;;;5072793;28;20202;-80
2021/11/01 23:00:35;;;;;;;3.07;1.03;;;11.90;99.90;;;;;;5060062;28;20204;-80
2021/11/01 23:03:14;;;;;;;4.65;1.52;;;11.80;99.90;;;;;;5035126;28;20184;-80
2021/11/01 23:06:03;;;;;;;2.65;1.02;;;11.80;99.90;;;;;;5052584;28;20169;-80
2021/11/01 23:33:12;;;;;;;2.97;1.10;;;12.10;99.90;;;;;;5052402;28;20173;-80
2021/11/01 23:35:38;;;;;;;5.18;1.42;;;12.10;99.90;;;;;;5052262;28;20169;-80
2021/11/01 23:38:04;;;;;;;4.38;1.48;;;12.10;99.90;;;;;;5052028;28;20197;-80
2021/11/01 23:40:30;;;;;;;3.63;1.10;;;12.10;99.90;;;;;;5034631;28;20710;-79
2021/11/01 23:42:56;;;;;;;5.95;0.90;;;12.10;99.90;;;;;;5051934;28;20567;-79
2021/11/01 23:45:22;;;;;;;2.50;0.80;;;12.10;99.90;;;;;;5052409;28;20161;-79
2021/11/01 23:47:47;;;;;;;3.63;1.10;;;12.10;99.90;;;;;;5051033;28;20162;-80
2021/11/01 23:50:13;;;;;;;3.30;1.00;;;12.10;99.90;;;;;;5034377;28;20196;-79
2021/11/01 23:52:54;;;;;;;2.43;0.70;;;12.10;99.90;;;;;;5054954;28;20161;-79
2021/11/01 23:55:19;;;;;;;1.90;0.80;;;12.20;99.90;;;;;;5035398;28;20161;-79
2021/11/01 23:57:45;;;;;;;2.67;1.27;;;12.20;99.90;;;;;;5052506;28;20180;-79
